Weather Data

Pearl Creek Farm: 8878 N Farm Road 75, Walnut Grove MO 65770

<== Previous Day (Tuesday 01 Jan 2008) | Next Day (Thursday 03 Jan 2008) ==>

Summary Precipitation Data For Wednesday 02 January 2008

ElementValueUnits
Precipitation0"
Notes(none)
SourceSpringfield-Branson National Airport (SGF)

Summary Temperature Data For Wednesday 02 January 2008

ElementValueUnits
High Temperature24 oF
Low Temperature9 oF
Average Temperature15 oF
High Humidity77 %
Low Humidity44 %
Average Humidity63 %
SourceSpringfield-Branson National Airport (SGF)

Detail Temperature Data For Wednesday 02 January 2008

Date / TimeTemp (F)RH (%)Dew Pt (F)Report Date / TimeSource
2008-01-02 00:52:00 14 61 3.0 2017-12-29 19:14:24.89625 Springfield-Branson National Airport (SGF)
2008-01-02 01:52:00 12 67 3.0 2017-12-29 19:14:24.89625 Springfield-Branson National Airport (SGF)
2008-01-02 02:52:00 11 67 2.0 2017-12-29 19:14:24.89625 Springfield-Branson National Airport (SGF)
2008-01-02 03:52:00 10 69 2.0 2017-12-29 19:14:24.89625 Springfield-Branson National Airport (SGF)
2008-01-02 04:52:00 10 69 2.0 2017-12-29 19:14:24.89625 Springfield-Branson National Airport (SGF)
2008-01-02 05:52:00 9 73 2.0 2017-12-29 19:14:24.89625 Springfield-Branson National Airport (SGF)
2008-01-02 06:52:00 9 77 3.0 2017-12-29 19:14:24.89625 Springfield-Branson National Airport (SGF)
2008-01-02 07:52:00 9 77 3.0 2017-12-29 19:14:24.89625 Springfield-Branson National Airport (SGF)
2008-01-02 08:52:00 11 70 3.0 2017-12-29 19:14:24.89625 Springfield-Branson National Airport (SGF)
2008-01-02 09:52:00 14 61 3.0 2017-12-29 19:14:24.89625 Springfield-Branson National Airport (SGF)
2008-01-02 10:52:00 16 59 4.0 2017-12-29 19:14:24.89625 Springfield-Branson National Airport (SGF)
2008-01-02 11:52:00 19 51 4.0 2017-12-29 19:14:24.89625 Springfield-Branson National Airport (SGF)
2008-01-02 12:52:00 22 48 5.0 2017-12-29 19:14:24.89625 Springfield-Branson National Airport (SGF)
2008-01-02 13:52:00 24 44 5.0 2017-12-29 19:14:24.89625 Springfield-Branson National Airport (SGF)
2008-01-02 14:52:00 24 44 5.0 2017-12-29 19:14:24.89625 Springfield-Branson National Airport (SGF)
2008-01-02 15:52:00 23 46 5.0 2017-12-29 19:14:24.89625 Springfield-Branson National Airport (SGF)
2008-01-02 16:52:00 22 48 5.0 2017-12-29 19:14:24.89625 Springfield-Branson National Airport (SGF)
2008-01-02 17:52:00 19 54 5.0 2017-12-29 19:14:24.89625 Springfield-Branson National Airport (SGF)
2008-01-02 18:52:00 17 64 7.0 2017-12-29 19:14:24.89625 Springfield-Branson National Airport (SGF)
2008-01-02 19:52:00 15 67 6.0 2017-12-29 19:14:24.89625 Springfield-Branson National Airport (SGF)
2008-01-02 20:52:00 14 67 5.0 2017-12-29 19:14:24.89625 Springfield-Branson National Airport (SGF)
2008-01-02 21:52:00 14 71 6.0 2017-12-29 19:14:24.89625 Springfield-Branson National Airport (SGF)
2008-01-02 22:52:00 14 71 6.0 2017-12-29 19:14:24.89625 Springfield-Branson National Airport (SGF)
2008-01-02 23:52:00 12 77 6.0 2017-12-29 19:14:24.89625 Springfield-Branson National Airport (SGF)

A total of 24 rows are displayed.